Latest Weather Observations for Kingaroy

IDQ60901

Issued at 8:21 am EST Monday 25 July 2016 (issued every 10 minutes, with the page automatically refreshed every 10 minutes)

About weather observations | Map of Brisbane area stations | Latest observations for Brisbane area | Other Formats
Station Details ID: 040922 Name: KINGAROY AIRPORT Lat: -26.57 Lon: 151.84 Height: 433.67 m
Data from the previous 72 hours. | See also: Recent months at Kingaroy
Date/Time
EST
Temp
°C
App
Temp
°C
Dew
Point
°C
Rel
Hum
%
Delta-T
°C
Wind Press
QNH
hPa
Press
MSL
hPa
Rain since
9am
mm
Dir  Spd
km/h
Gust
km/h
Spd
kts
Gust
kts
25/08:00am 11.0 7.5 5.5 69 2.6 S 13 19 7 10 1019.9 1019.8 0.0
25/07:30am 6.4 4.2 5.4 93 0.5 SSW 6 9 3 5 1019.7 1019.6 0.0
25/07:00am 4.9 3.6 3.9 93 0.4 CALM 0 0 0 0 1019.3 1019.2 0.0
25/06:30am 4.6 2.8 3.6 93 0.4 NNW 2 6 1 3 1018.9 1018.8 0.0
25/06:00am 5.0 2.5 4.0 93 0.4 SW 6 7 3 4 1018.2 1018.2 0.0
25/05:30am 5.6 3.1 4.6 93 0.4 S 7 9 4 5 1017.8 1017.7 0.0
25/05:00am 5.0 2.3 3.8 92 0.5 S 7 11 4 6 1017.5 1017.4 0.0
25/04:30am 5.7 3.4 5.0 95 0.3 E 6 9 3 5 1017.2 1017.1 0.0
25/04:00am 5.9 4.8 5.2 95 0.3 CALM 0 0 0 0 1017.2 1017.1 0.0
25/03:30am 5.8 4.6 4.8 93 0.4 CALM 0 0 0 0 1017.1 1017.0 0.0
25/03:00am 6.3 5.2 5.1 92 0.5 CALM 0 0 0 0 1016.9 1016.8 0.0
25/02:30am 6.6 5.5 5.2 91 0.6 CALM 0 0 0 0 1016.9 1016.8 0.0
25/02:00am 7.3 6.3 5.8 90 0.7 CALM 0 0 0 0 1016.9 1016.8 0.0
25/01:30am 7.2 6.2 5.8 91 0.6 CALM 0 0 0 0 1017.0 1016.9 0.0
25/01:00am 7.2 5.4 5.5 89 0.8 S 4 7 2 4 1017.2 1017.1 0.0
25/12:30am 7.5 6.5 5.8 89 0.8 CALM 0 0 0 0 1017.2 1017.1 0.0
25/12:00am 7.8 6.8 5.8 87 0.9 CALM 0 0 0 0 1017.3 1017.2 0.0
 
Date/Time
EST
Temp
°C
App
Temp
°C
Dew
Point
°C
Rel
Hum
%
Delta-T
°C
Wind Press
QNH
hPa
Press
MSL
hPa
Rain since
9am
mm
Dir  Spd
km/h
Gust
km/h
Spd
kts
Gust
kts
24/11:30pm 7.8 6.5 5.9 88 0.9 ENE 2 6 1 3 1017.2 1017.1 0.0
24/11:00pm 8.3 6.1 6.3 87 0.9 SE 7 9 4 5 1017.2 1017.1 0.0
24/10:30pm 8.5 6.3 6.1 85 1.1 S 7 9 4 5 1017.0 1016.9 0.0
24/10:00pm 8.4 7.5 6.0 85 1.1 CALM 0 0 0 0 1016.7 1016.6 0.0
24/09:30pm 9.6 8.7 6.1 79 1.7 CALM 0 0 0 0 1016.7 1016.6 0.0
24/09:00pm 9.6 7.6 6.3 80 1.6 ESE 6 6 3 3 1016.7 1016.6 0.0
24/08:30pm 10.7 10.0 7.0 78 1.8 CALM 0 0 0 0 1016.6 1016.5 0.0
24/08:00pm 10.4 9.7 7.1 80 1.6 CALM 0 0 0 0 1016.4 1016.3 0.0
24/07:30pm 11.4 9.7 7.7 78 1.8 E 6 7 3 4 1016.4 1016.3 0.0
24/07:00pm 13.2 11.2 7.0 66 3.1 SSE 7 9 4 5 1016.1 1016.0 0.0
24/06:30pm 13.8 13.2 7.6 66 3.1 CALM 0 0 0 0 1015.3 1015.2 0.0
24/06:00pm 16.2 14.3 6.6 53 4.8 W 6 7 3 4 1014.9 1014.8 0.0
24/05:30pm 18.8 16.8 6.3 44 6.3 WSW 6 7 3 4 1014.8 1014.7 0.0
24/05:00pm 20.5 18.0 6.5 40 7.2 W 9 15 5 8 1014.5 1014.4 0.0
24/04:30pm 21.5 18.1 5.8 36 8.0 W 13 19 7 10 1014.1 1013.9 0.0
24/04:00pm 22.1 17.9 5.9 35 8.3 WNW 17 24 9 13 1014.0 1013.8 0.0
24/03:30pm 22.4 16.9 5.8 34 8.5 NW 24 32 13 17 1013.8 1013.7 0.0
24/03:00pm 22.8 17.3 5.7 33 8.8 NW 24 32 13 17 1013.8 1013.7 0.0
24/02:30pm 22.7 17.4 5.2 32 8.9 NW 22 32 12 17 1014.1 1013.9 0.0
24/02:00pm 22.9 18.3 5.8 33 8.8 NW 19 33 10 18 1014.5 1014.4 0.0
24/01:30pm 22.1 17.1 4.7 32 8.8 WNW 20 32 11 17 1014.9 1014.8 0.0
24/01:00pm 21.6 17.2 4.7 33 8.5 W 17 24 9 13 1015.4 1015.3 0.0
24/12:30pm 21.1 16.7 4.6 34 8.2 WNW 17 28 9 15 1015.7 1015.6 0.0
24/12:00pm 20.9 16.9 4.9 35 8.0 NNW 15 26 8 14 1016.2 1016.1 0.0
24/11:30am 20.0 16.8 4.9 37 7.5 NW 11 20 6 11 1016.9 1016.8 0.0
24/11:00am 18.1 14.9 3.2 37 7.1 W 9 13 5 7 1017.5 1017.4 0.0
24/10:30am 18.0 15.5 4.9 42 6.4 NNE 7 11 4 6 1017.9 1017.8 0.0
24/10:00am 15.9 13.1 3.0 42 6.0 NW 7 11 4 6 1018.1 1018.0 0.0
24/09:30am 15.1 12.5 3.3 45 5.5 NW 6 9 3 5 1018.0 1017.9 0.0
24/09:00am 13.3 11.0 2.8 49 4.7 N 4 7 2 4 1017.8 1017.7 0.0
24/08:30am 10.8 9.4 3.4 60 3.3 CALM 0 0 0 0 1017.8 1017.7 0.0
24/08:00am 8.5 6.2 4.7 77 1.7 NW 6 7 3 4 1017.6 1017.5 0.0
24/07:30am 5.8 3.7 3.8 87 0.9 N 4 9 2 5 1017.5 1017.4 0.0
24/07:00am 4.7 3.1 2.7 87 0.8 CALM 0 0 0 0 1017.4 1017.3 0.0
24/06:30am 5.2 3.2 2.4 82 1.2 SSW 2 7 1 4 1016.8 1016.7 0.0
24/06:00am 6.1 4.5 2.6 78 1.5 CALM 0 0 0 0 1016.5 1016.4 0.0
24/05:30am 7.6 6.0 2.5 70 2.2 CALM 0 4 0 2 1015.9 1015.8 0.0
24/05:00am 7.8 5.8 2.5 69 2.3 SE 2 9 1 5 1015.6 1015.5 0.0
24/04:30am 7.5 4.8 2.4 70 2.2 SE 6 9 3 5 1015.6 1015.5 0.0
24/04:00am 7.5 4.7 2.2 69 2.2 ESE 6 7 3 4 1015.6 1015.5 0.0
24/03:30am 8.4 5.7 2.4 66 2.6 SE 6 7 3 4 1015.6 1015.5 0.0
24/03:00am 8.8 5.5 2.2 63 2.8 SSE 9 13 5 7 1015.6 1015.5 0.0
24/02:30am 9.1 5.8 2.2 62 3.0 SSE 9 13 5 7 1015.5 1015.4 0.0
24/02:00am 10.4 5.6 2.5 58 3.5 S 17 22 9 12 1015.6 1015.5 0.0
24/01:30am 10.5 5.4 3.3 61 3.2 S 19 24 10 13 1015.6 1015.5 0.0
24/01:00am 10.1 6.7 3.8 65 2.8 S 11 15 6 8 1015.7 1015.6 0.0
24/12:30am 11.0 6.6 4.9 66 2.8 S 17 20 9 11 1015.5 1015.4 0.0
24/12:00am 11.5 8.1 5.8 68 2.7 S 13 19 7 10 1015.3 1015.2 0.0
 
Date/Time
EST
Temp
°C
App
Temp
°C
Dew
Point
°C
Rel
Hum
%
Delta-T
°C
Wind Press
QNH
hPa
Press
MSL
hPa
Rain since
9am
mm
Dir  Spd
km/h
Gust
km/h
Spd
kts
Gust
kts
23/11:30pm 11.2 10.2 5.7 69 2.6 CALM 0 0 0 0 1015.3 1015.2 0.0
23/11:00pm 11.5 9.5 6.4 71 2.5 SSE 6 7 3 4 1015.4 1015.3 0.0
23/10:30pm 12.0 9.7 7.3 73 2.3 SSE 9 11 5 6 1015.1 1015.0 0.0
23/10:00pm 12.1 9.0 7.4 73 2.3 SSW 13 15 7 8 1014.9 1014.8 0.0
23/09:30pm 13.0 10.6 7.2 68 2.9 SSW 9 11 5 6 1014.9 1014.8 0.0
23/09:00pm 15.5 13.5 8.5 63 3.6 WSW 9 11 5 6 1014.7 1014.6 0.0
23/08:30pm 16.5 14.5 8.7 60 4.1 SW 9 13 5 7 1014.6 1014.5 0.0
23/08:00pm 17.3 15.8 9.2 59 4.3 W 7 9 4 5 1014.1 1013.9 0.0
23/07:30pm 18.1 15.9 9.5 57 4.6 WSW 11 15 6 8 1014.1 1013.9 0.0
23/07:00pm 19.3 16.5 10.0 55 5.1 WSW 15 20 8 11 1013.8 1013.7 0.0
23/06:30pm 19.5 17.7 10.8 57 4.8 WSW 11 17 6 9 1013.4 1013.3 0.0
23/06:00pm 20.3 18.8 10.4 53 5.5 W 9 15 5 8 1013.1 1013.0 0.0
23/05:30pm 21.5 18.8 10.3 49 6.2 W 15 19 8 10 1012.7 1012.6 0.0
23/05:00pm 22.6 20.0 10.7 47 6.7 W 15 20 8 11 1012.3 1012.1 0.0
23/04:30pm 23.5 19.6 10.9 45 7.1 W 22 32 12 17 1012.1 1011.9 0.0
23/04:00pm 24.3 21.0 11.6 45 7.3 W 20 28 11 15 1012.0 1011.8 0.0
23/03:30pm 25.0 21.3 11.6 43 7.7 W 22 35 12 19 1011.9 1011.7 0.0
23/03:00pm 24.4 19.7 10.7 42 7.8 W 26 43 14 23 1011.9 1011.7 0.0
23/02:56pm 24.9 19.9 11.1 42 7.9 W 28 46 15 25 1011.9 1011.7 0.0
23/02:30pm 24.9 20.1 11.8 44 7.6 W 28 44 15 24 1011.8 1011.6 0.0
23/02:04pm 24.7 19.6 12.0 45 7.4 WSW 30 54 16 29 1011.8 1011.6 0.0
23/02:00pm 24.9 20.0 12.5 46 7.3 WSW 30 41 16 22 1011.8 1011.6 0.0
23/01:30pm 25.4 21.4 12.9 45 7.4 WSW 26 43 14 23 1011.8 1011.6 0.0
23/01:00pm 26.1 22.0 13.9 47 7.4 WSW 28 43 15 23 1011.9 1011.7 0.0
23/12:30pm 24.9 20.4 13.8 50 6.6 W 30 44 16 24 1012.1 1011.9 0.0
23/12:00pm 24.0 18.7 13.2 50 6.4 WSW 33 46 18 25 1012.3 1012.1 0.0
23/11:30am 23.9 19.3 13.4 51 6.2 W 30 43 16 23 1012.6 1012.5 0.0
23/11:00am 24.0 20.4 14.1 54 5.9 W 26 39 14 21 1012.8 1012.7 0.0
23/10:30am 24.6 22.0 15.8 58 5.4 WNW 24 33 13 18 1013.0 1012.9 0.0
23/10:00am 23.2 20.0 16.3 65 4.3 WNW 28 41 15 22 1013.3 1013.2 0.0
23/09:30am 22.8 20.8 16.4 67 4.0 WNW 22 35 12 19 1013.6 1013.5 0.0
23/09:00am 21.2 18.7 16.2 73 3.1 WNW 24 35 13 19 1013.8 1013.7 0.0
23/08:30am 19.7 18.2 16.7 83 1.8 NW 20 28 11 15 1013.8 1013.7 0.0
23/08:00am 18.5 17.6 16.8 90 1.0 NW 17 22 9 12 1014.1 1013.9 0.0
23/07:30am 16.2 15.8 15.2 94 0.6 NW 11 15 6 8 1014.0 1013.8 0.0
23/07:00am 16.2 16.3 15.6 96 0.4 NW 9 13 5 7 1013.7 1013.6 0.0
23/06:30am 15.1 14.8 14.3 95 0.5 NW 9 11 5 6 1013.4 1013.3 0.0
23/06:00am 15.7 15.1 14.7 94 0.6 NW 11 13 6 7 1013.2 1013.1 0.0
23/05:30am 16.1 16.1 15.3 95 0.5 NW 9 11 5 6 1013.1 1013.0 0.0
23/05:00am 15.6 15.1 14.8 95 0.5 NW 11 13 6 7 1012.9 1012.8 0.0
23/04:30am 16.0 15.2 15.0 94 0.6 NW 13 15 7 8 1012.8 1012.7 0.0
23/04:00am 16.0 15.7 15.4 96 0.4 NW 11 13 6 7 1012.7 1012.6 0.0
23/03:30am 15.3 15.5 14.8 97 0.3 NNW 7 9 4 5 1012.9 1012.8 0.0
23/03:00am 14.7 16.0 14.2 97 0.3 CALM 0 0 0 0 1012.9 1012.8 0.0
23/02:30am 14.5 15.4 14.0 97 0.3 NNW 2 6 1 3 1013.0 1012.9 0.0
23/02:00am 14.3 14.4 13.8 97 0.3 N 6 7 3 4 1013.0 1012.9 0.0
23/01:30am 13.8 14.4 13.2 96 0.3 NNW 2 6 1 3 1013.3 1013.2 0.0
23/01:00am 14.5 15.8 14.0 97 0.3 CALM 0 0 0 0 1013.4 1013.3 0.0
23/12:30am 14.1 15.1 13.3 95 0.5 CALM 0 0 0 0 1013.7 1013.6 0.0
23/12:00am 14.9 16.3 14.3 96 0.3 CALM 0 0 0 0 1013.8 1013.7 0.0
 
Date/Time
EST
Temp
°C
App
Temp
°C
Dew
Point
°C
Rel
Hum
%
Delta-T
°C
Wind Press
QNH
hPa
Press
MSL
hPa
Rain since
9am
mm
Dir  Spd
km/h
Gust
km/h
Spd
kts
Gust
kts
22/11:30pm 12.9 12.1 11.0 88 1.0 SW 6 9 3 5 1014.2 1014.0 0.0
22/11:00pm 15.1 16.4 14.0 93 0.6 CALM 0 0 0 0 1014.2 1014.0 0.0
22/10:30pm 14.8 16.0 13.7 93 0.6 CALM 0 0 0 0 1014.2 1014.0 0.0
22/10:00pm 14.2 15.1 12.8 91 0.8 CALM 0 6 0 3 1014.3 1014.1 0.0
22/09:30pm 14.7 15.7 13.1 90 0.9 CALM 0 0 0 0 1014.4 1014.3 0.0
22/09:00pm 15.4 16.5 13.4 88 1.1 CALM 0 0 0 0 1014.4 1014.3 0.0
22/08:30pm 15.8 16.9 13.6 87 1.3 CALM 0 0 0 0 1014.4 1014.3 0.0
22/08:00pm 16.8 18.2 14.3 85 1.5 CALM 0 0 0 0 1014.5 1014.4 0.0
22/07:30pm 17.3 18.3 14.4 83 1.7 NNE 2 6 1 3 1014.5 1014.4 0.0
22/07:00pm 17.7 19.1 14.4 81 1.9 CALM 0 0 0 0 1014.3 1014.1 0.0
22/06:30pm 19.3 20.7 14.3 73 2.9 CALM 0 0 0 0 1014.1 1013.9 0.0
22/06:00pm 20.3 21.4 14.7 70 3.3 N 2 6 1 3 1013.7 1013.6 0.0
22/05:30pm 22.0 22.1 13.9 60 4.8 NW 6 7 3 4 1013.5 1013.4 0.0
22/05:00pm 24.2 23.9 14.3 54 6.0 W 9 11 5 6 1013.2 1013.1 0.0
22/04:30pm 25.6 24.3 13.8 48 7.1 WNW 13 17 7 9 1013.1 1013.0 0.0
22/04:00pm 25.9 24.8 14.4 49 7.0 WSW 13 19 7 10 1013.1 1013.0 0.0
22/03:30pm 24.9 22.6 14.1 51 6.5 WNW 19 26 10 14 1013.2 1013.1 0.0
22/03:00pm 25.0 23.3 13.5 48 6.9 WNW 15 22 8 12 1013.4 1013.3 0.0
22/02:30pm 26.7 25.2 14.1 46 7.6 W 15 22 8 12 1013.5 1013.4 0.0
22/02:00pm 25.4 23.9 14.2 50 6.8 W 15 26 8 14 1014.0 1013.8 0.0
22/01:30pm 24.5 23.2 14.9 55 5.8 W 15 20 8 11 1014.2 1014.0 0.0
22/01:00pm 25.4 24.7 15.4 54 6.2 W 13 19 7 10 1014.7 1014.6 0.0
22/12:30pm 25.7 24.1 15.1 52 6.5 WNW 17 24 9 13 1015.2 1015.1 0.0
22/12:00pm 25.2 25.0 15.8 56 5.8 W 11 17 6 9 1015.8 1015.7 0.0
22/11:30am 24.9 24.1 16.1 58 5.5 WNW 15 22 8 12 1016.5 1016.4 0.0
22/11:00am 24.1 22.6 16.4 62 4.8 WNW 19 22 10 12 1017.0 1016.9 0.0
22/10:30am 23.9 23.6 17.4 67 4.1 W 15 20 8 11 1017.5 1017.4 0.0
22/10:00am 23.0 22.9 17.0 69 3.8 W 13 20 7 11 1017.8 1017.7 0.0
22/09:30am 20.4 21.0 16.8 80 2.2 WNW 9 13 5 7 1018.1 1018.0 0.0
22/09:00am 19.0 19.4 16.4 85 1.6 WNW 9 11 5 6 1018.2 1018.2 0.0
22/08:30am 17.3 19.2 16.8 97 0.3 NW 2 7 1 4 1018.1 1018.0 0.0

Latest Capital City Observations: Canberra | Sydney | Melbourne | Brisbane | Adelaide | Perth | Hobart | Darwin

Other Formats:

Comma delimited format used in spreadsheet applications
http://www.bom.gov.au/fwo/IDQ60901/IDQ60901.94549.axf

JavaScript Object Notation format (JSON) in row-major order
http://www.bom.gov.au/fwo/IDQ60901/IDQ60901.94549.json